Comstock, Michigan
Current Conditions -  °F | °C
As of 12:10 AM on Saturday 25 Oct 2014 (Local Time) from KAZO Reporting Station
Haze Haze  
Wind Chill: 46°   Ceiling: Unl
Heat Index: 46°   Visibility: 2.5mi
Dew Point: 44°   Wind: 3mph
Humidity: 93%   Direction: 160°SSE
Pressure: 29.95"   Gusts: NA
Location:  42.29°N, 85.51°W
Report Text: KAZO 250410Z AUTO 16003KT 2 1/2SM BR CLR 08/07 A2995 RMK AO2 T00780067
Loading
Personal Weather Stations






























Interactive Weather Map
Tropical Storm Tracking
New forecast layout! Learn more

10-Day Weather Forecast

Advertisements
Track Severe Weather on mobile